sensor_id;sensor_type;location;lat;lon;timestamp;P1;durP1;ratioP1;P2;durP2;ratioP2
76727;SDS011;65652;53.132;18.026;2023-10-31T00:02:09;22.30;;;11.80;;
76727;SDS011;65652;53.132;18.026;2023-10-31T00:04:36;22.10;;;11.20;;
76727;SDS011;65652;53.132;18.026;2023-10-31T00:07:03;21.70;;;11.80;;
76727;SDS011;65652;53.132;18.026;2023-10-31T00:09:30;20.10;;;10.90;;
76727;SDS011;65652;53.132;18.026;2023-10-31T00:11:58;25.10;;;12.70;;
76727;SDS011;65652;53.132;18.026;2023-10-31T00:14:25;23.80;;;11.40;;
76727;SDS011;65652;53.132;18.026;2023-10-31T00:16:52;23.20;;;11.90;;
76727;SDS011;65652;53.132;18.026;2023-10-31T00:19:19;19.30;;;10.90;;
76727;SDS011;65652;53.132;18.026;2023-10-31T00:21:45;24.00;;;11.50;;
76727;SDS011;65652;53.132;18.026;2023-10-31T00:24:12;21.50;;;11.60;;
76727;SDS011;65652;53.132;18.026;2023-10-31T00:26:39;20.10;;;11.40;;
76727;SDS011;65652;53.132;18.026;2023-10-31T00:29:06;21.20;;;11.10;;
76727;SDS011;65652;53.132;18.026;2023-10-31T00:31:33;20.80;;;10.90;;
76727;SDS011;65652;53.132;18.026;2023-10-31T00:36:28;25.00;;;12.40;;
76727;SDS011;65652;53.132;18.026;2023-10-31T00:38:55;20.80;;;10.90;;
76727;SDS011;65652;53.132;18.026;2023-10-31T00:41:22;23.70;;;11.40;;
76727;SDS011;65652;53.132;18.026;2023-10-31T00:43:49;23.90;;;11.90;;
76727;SDS011;65652;53.132;18.026;2023-10-31T00:46:16;25.80;;;12.20;;
76727;SDS011;65652;53.132;18.026;2023-10-31T00:48:42;22.40;;;12.20;;
76727;SDS011;65652;53.132;18.026;2023-10-31T00:51:09;22.50;;;10.80;;
76727;SDS011;65652;53.132;18.026;2023-10-31T00:53:36;22.70;;;11.00;;
76727;SDS011;65652;53.132;18.026;2023-10-31T00:56:03;20.00;;;11.50;;
76727;SDS011;65652;53.132;18.026;2023-10-31T00:58:30;20.20;;;10.90;;
76727;SDS011;65652;53.132;18.026;2023-10-31T01:00:57;21.70;;;10.90;;
76727;SDS011;65652;53.132;18.026;2023-10-31T01:03:24;19.50;;;10.50;;
76727;SDS011;65652;53.132;18.026;2023-10-31T01:05:51;21.50;;;12.00;;
76727;SDS011;65652;53.132;18.026;2023-10-31T01:08:18;21.50;;;11.20;;
76727;SDS011;65652;53.132;18.026;2023-10-31T01:10:45;23.30;;;11.60;;
76727;SDS011;65652;53.132;18.026;2023-10-31T01:13:13;22.30;;;11.30;;
76727;SDS011;65652;53.132;18.026;2023-10-31T01:15:39;19.40;;;11.10;;
76727;SDS011;65652;53.132;18.026;2023-10-31T01:18:06;22.20;;;11.00;;
76727;SDS011;65652;53.132;18.026;2023-10-31T01:20:33;18.70;;;10.50;;
76727;SDS011;65652;53.132;18.026;2023-10-31T01:23:00;18.90;;;10.70;;
76727;SDS011;65652;53.132;18.026;2023-10-31T01:25:28;21.40;;;11.30;;
76727;SDS011;65652;53.132;18.026;2023-10-31T01:27:54;22.40;;;9.90;;
76727;SDS011;65652;53.132;18.026;2023-10-31T01:30:21;17.70;;;10.10;;
76727;SDS011;65652;53.132;18.026;2023-10-31T01:32:49;20.60;;;11.10;;
76727;SDS011;65652;53.132;18.026;2023-10-31T01:35:16;19.90;;;11.20;;
76727;SDS011;65652;53.132;18.026;2023-10-31T01:37:43;24.30;;;11.40;;
76727;SDS011;65652;53.132;18.026;2023-10-31T01:40:13;19.90;;;11.20;;
76727;SDS011;65652;53.132;18.026;2023-10-31T01:42:39;16.90;;;9.20;;
76727;SDS011;65652;53.132;18.026;2023-10-31T01:45:07;18.70;;;10.40;;
76727;SDS011;65652;53.132;18.026;2023-10-31T01:47:34;20.30;;;9.80;;
76727;SDS011;65652;53.132;18.026;2023-10-31T01:50:01;20.30;;;10.60;;
76727;SDS011;65652;53.132;18.026;2023-10-31T01:52:29;22.80;;;10.80;;
76727;SDS011;65652;53.132;18.026;2023-10-31T01:54:59;18.60;;;10.70;;
76727;SDS011;65652;53.132;18.026;2023-10-31T01:57:29;20.60;;;10.70;;
76727;SDS011;65652;53.132;18.026;2023-10-31T01:59:56;21.20;;;10.10;;
76727;SDS011;65652;53.132;18.026;2023-10-31T02:02:23;18.10;;;10.30;;
76727;SDS011;65652;53.132;18.026;2023-10-31T02:04:51;16.40;;;9.90;;
76727;SDS011;65652;53.132;18.026;2023-10-31T02:07:18;18.90;;;9.70;;
76727;SDS011;65652;53.132;18.026;2023-10-31T02:09:46;17.20;;;10.00;;
76727;SDS011;65652;53.132;18.026;2023-10-31T02:12:34;19.40;;;10.20;;
76727;SDS011;65652;53.132;18.026;2023-10-31T02:15:03;17.30;;;9.60;;
76727;SDS011;65652;53.132;18.026;2023-10-31T02:17:31;18.50;;;9.50;;
76727;SDS011;65652;53.132;18.026;2023-10-31T02:19:57;19.10;;;10.30;;
76727;SDS011;65652;53.132;18.026;2023-10-31T02:22:24;19.80;;;10.00;;
76727;SDS011;65652;53.132;18.026;2023-10-31T02:24:51;23.40;;;10.60;;
76727;SDS011;65652;53.132;18.026;2023-10-31T02:27:18;18.90;;;10.00;;
76727;SDS011;65652;53.132;18.026;2023-10-31T02:29:45;20.40;;;10.40;;
76727;SDS011;65652;53.132;18.026;2023-10-31T02:32:11;19.10;;;9.50;;
76727;SDS011;65652;53.132;18.026;2023-10-31T02:34:38;19.70;;;10.60;;
76727;SDS011;65652;53.132;18.026;2023-10-31T02:37:05;18.40;;;9.20;;
76727;SDS011;65652;53.132;18.026;2023-10-31T02:39:33;18.00;;;9.70;;
76727;SDS011;65652;53.132;18.026;2023-10-31T02:42:00;20.00;;;10.10;;
76727;SDS011;65652;53.132;18.026;2023-10-31T02:44:28;17.90;;;9.20;;
76727;SDS011;65652;53.132;18.026;2023-10-31T02:46:54;15.80;;;9.50;;
76727;SDS011;65652;53.132;18.026;2023-10-31T02:49:22;16.70;;;8.40;;
76727;SDS011;65652;53.132;18.026;2023-10-31T02:51:49;17.90;;;9.00;;
76727;SDS011;65652;53.132;18.026;2023-10-31T02:54:16;15.60;;;9.20;;
76727;SDS011;65652;53.132;18.026;2023-10-31T02:56:43;20.10;;;9.50;;
76727;SDS011;65652;53.132;18.026;2023-10-31T02:59:10;19.40;;;9.60;;
76727;SDS011;65652;53.132;18.026;2023-10-31T03:01:37;15.30;;;8.60;;
76727;SDS011;65652;53.132;18.026;2023-10-31T03:04:04;16.90;;;9.50;;
76727;SDS011;65652;53.132;18.026;2023-10-31T03:06:31;18.50;;;8.70;;
76727;SDS011;65652;53.132;18.026;2023-10-31T03:08:59;16.00;;;8.20;;
76727;SDS011;65652;53.132;18.026;2023-10-31T03:11:26;14.60;;;8.20;;
76727;SDS011;65652;53.132;18.026;2023-10-31T03:13:53;16.30;;;8.20;;
76727;SDS011;65652;53.132;18.026;2023-10-31T03:16:20;14.40;;;8.00;;
76727;SDS011;65652;53.132;18.026;2023-10-31T03:18:48;18.50;;;8.60;;
76727;SDS011;65652;53.132;18.026;2023-10-31T03:21:15;16.30;;;8.00;;
76727;SDS011;65652;53.132;18.026;2023-10-31T03:23:46;13.90;;;7.80;;
76727;SDS011;65652;53.132;18.026;2023-10-31T03:26:15;16.70;;;7.70;;
76727;SDS011;65652;53.132;18.026;2023-10-31T03:28:43;14.10;;;6.70;;
76727;SDS011;65652;53.132;18.026;2023-10-31T03:31:11;13.00;;;7.90;;
76727;SDS011;65652;53.132;18.026;2023-10-31T03:33:39;15.50;;;8.40;;
76727;SDS011;65652;53.132;18.026;2023-10-31T03:36:06;14.60;;;7.90;;
76727;SDS011;65652;53.132;18.026;2023-10-31T03:38:33;14.90;;;7.90;;
76727;SDS011;65652;53.132;18.026;2023-10-31T03:41:01;13.70;;;7.50;;
76727;SDS011;65652;53.132;18.026;2023-10-31T03:43:28;14.70;;;7.50;;
76727;SDS011;65652;53.132;18.026;2023-10-31T03:45:55;14.30;;;7.60;;
76727;SDS011;65652;53.132;18.026;2023-10-31T03:48:22;12.90;;;7.10;;
76727;SDS011;65652;53.132;18.026;2023-10-31T03:50:49;13.80;;;6.70;;
76727;SDS011;65652;53.132;18.026;2023-10-31T03:53:16;14.60;;;7.90;;
76727;SDS011;65652;53.132;18.026;2023-10-31T03:55:43;14.80;;;7.80;;
76727;SDS011;65652;53.132;18.026;2023-10-31T03:58:10;19.80;;;7.30;;
76727;SDS011;65652;53.132;18.026;2023-10-31T04:00:38;15.40;;;6.70;;
76727;SDS011;65652;53.132;18.026;2023-10-31T04:03:05;13.60;;;6.70;;
76727;SDS011;65652;53.132;18.026;2023-10-31T04:05:32;16.10;;;6.90;;
76727;SDS011;65652;53.132;18.026;2023-10-31T04:07:59;12.80;;;5.90;;
76727;SDS011;65652;53.132;18.026;2023-10-31T04:10:27;14.60;;;6.90;;
76727;SDS011;65652;53.132;18.026;2023-10-31T04:12:55;13.80;;;7.00;;
76727;SDS011;65652;53.132;18.026;2023-10-31T04:15:22;12.50;;;6.50;;
76727;SDS011;65652;53.132;18.026;2023-10-31T04:17:49;12.20;;;6.30;;
76727;SDS011;65652;53.132;18.026;2023-10-31T04:20:16;15.30;;;6.20;;
76727;SDS011;65652;53.132;18.026;2023-10-31T04:22:43;11.10;;;5.80;;
76727;SDS011;65652;53.132;18.026;2023-10-31T04:25:09;17.00;;;6.70;;
76727;SDS011;65652;53.132;18.026;2023-10-31T04:27:36;11.60;;;5.60;;
76727;SDS011;65652;53.132;18.026;2023-10-31T04:30:03;13.30;;;5.90;;
76727;SDS011;65652;53.132;18.026;2023-10-31T04:32:30;12.70;;;6.00;;
76727;SDS011;65652;53.132;18.026;2023-10-31T04:34:57;12.40;;;6.70;;
76727;SDS011;65652;53.132;18.026;2023-10-31T04:37:24;13.00;;;6.10;;
76727;SDS011;65652;53.132;18.026;2023-10-31T04:39:51;11.90;;;6.30;;
76727;SDS011;65652;53.132;18.026;2023-10-31T04:42:17;12.60;;;5.70;;
76727;SDS011;65652;53.132;18.026;2023-10-31T04:44:46;12.80;;;6.20;;
76727;SDS011;65652;53.132;18.026;2023-10-31T04:47:13;11.80;;;5.90;;
76727;SDS011;65652;53.132;18.026;2023-10-31T04:49:40;10.30;;;5.30;;
76727;SDS011;65652;53.132;18.026;2023-10-31T04:52:07;12.20;;;5.70;;
76727;SDS011;65652;53.132;18.026;2023-10-31T04:54:34;11.10;;;5.40;;
76727;SDS011;65652;53.132;18.026;2023-10-31T04:57:00;11.70;;;5.70;;
76727;SDS011;65652;53.132;18.026;2023-10-31T04:59:27;12.50;;;5.90;;
76727;SDS011;65652;53.132;18.026;2023-10-31T05:01:54;10.90;;;5.20;;
76727;SDS011;65652;53.132;18.026;2023-10-31T05:04:21;9.30;;;5.30;;
76727;SDS011;65652;53.132;18.026;2023-10-31T05:06:48;14.10;;;5.60;;
76727;SDS011;65652;53.132;18.026;2023-10-31T05:09:15;10.50;;;5.00;;
76727;SDS011;65652;53.132;18.026;2023-10-31T05:11:42;12.80;;;5.90;;
76727;SDS011;65652;53.132;18.026;2023-10-31T05:14:09;13.40;;;6.20;;
76727;SDS011;65652;53.132;18.026;2023-10-31T05:16:39;10.70;;;5.80;;
76727;SDS011;65652;53.132;18.026;2023-10-31T05:19:09;12.70;;;5.60;;
76727;SDS011;65652;53.132;18.026;2023-10-31T05:21:37;11.10;;;5.60;;
76727;SDS011;65652;53.132;18.026;2023-10-31T05:24:04;11.50;;;5.60;;
76727;SDS011;65652;53.132;18.026;2023-10-31T05:26:31;11.70;;;5.10;;
76727;SDS011;65652;53.132;18.026;2023-10-31T05:28:58;10.70;;;4.70;;
76727;SDS011;65652;53.132;18.026;2023-10-31T05:31:25;10.80;;;5.30;;
76727;SDS011;65652;53.132;18.026;2023-10-31T05:33:52;10.60;;;5.40;;
76727;SDS011;65652;53.132;18.026;2023-10-31T05:36:20;9.40;;;4.80;;
76727;SDS011;65652;53.132;18.026;2023-10-31T05:38:47;11.70;;;5.50;;
76727;SDS011;65652;53.132;18.026;2023-10-31T05:41:15;11.10;;;5.00;;
76727;SDS011;65652;53.132;18.026;2023-10-31T05:43:42;9.70;;;4.40;;
76727;SDS011;65652;53.132;18.026;2023-10-31T05:46:09;10.40;;;4.60;;
76727;SDS011;65652;53.132;18.026;2023-10-31T05:48:42;9.20;;;4.90;;
76727;SDS011;65652;53.132;18.026;2023-10-31T05:51:13;11.20;;;5.20;;
76727;SDS011;65652;53.132;18.026;2023-10-31T05:53:42;10.40;;;4.30;;
76727;SDS011;65652;53.132;18.026;2023-10-31T05:56:12;10.60;;;5.10;;
76727;SDS011;65652;53.132;18.026;2023-10-31T05:58:40;10.00;;;4.30;;
76727;SDS011;65652;53.132;18.026;2023-10-31T06:03:35;12.90;;;5.40;;
76727;SDS011;65652;53.132;18.026;2023-10-31T06:06:01;7.80;;;4.20;;
76727;SDS011;65652;53.132;18.026;2023-10-31T06:08:28;11.30;;;4.60;;
76727;SDS011;65652;53.132;18.026;2023-10-31T06:10:56;12.20;;;4.40;;
76727;SDS011;65652;53.132;18.026;2023-10-31T06:13:23;9.30;;;4.20;;
76727;SDS011;65652;53.132;18.026;2023-10-31T06:15:54;9.30;;;4.00;;
76727;SDS011;65652;53.132;18.026;2023-10-31T06:18:21;10.70;;;4.30;;
76727;SDS011;65652;53.132;18.026;2023-10-31T06:20:48;10.40;;;4.30;;
76727;SDS011;65652;53.132;18.026;2023-10-31T06:23:15;14.00;;;5.20;;
76727;SDS011;65652;53.132;18.026;2023-10-31T06:25:42;7.70;;;3.70;;
76727;SDS011;65652;53.132;18.026;2023-10-31T06:28:08;8.70;;;3.80;;
76727;SDS011;65652;53.132;18.026;2023-10-31T06:30:36;13.20;;;4.90;;
76727;SDS011;65652;53.132;18.026;2023-10-31T06:33:02;9.60;;;4.30;;
76727;SDS011;65652;53.132;18.026;2023-10-31T06:35:29;10.00;;;4.70;;
76727;SDS011;65652;53.132;18.026;2023-10-31T06:37:56;12.20;;;4.60;;
76727;SDS011;65652;53.132;18.026;2023-10-31T06:40:24;10.20;;;4.60;;
76727;SDS011;65652;53.132;18.026;2023-10-31T06:42:51;10.30;;;4.80;;
76727;SDS011;65652;53.132;18.026;2023-10-31T06:45:18;8.70;;;4.10;;
76727;SDS011;65652;53.132;18.026;2023-10-31T06:47:45;10.30;;;4.50;;
76727;SDS011;65652;53.132;18.026;2023-10-31T06:50:12;11.60;;;4.30;;
76727;SDS011;65652;53.132;18.026;2023-10-31T06:52:39;9.40;;;4.30;;
76727;SDS011;65652;53.132;18.026;2023-10-31T06:55:06;12.60;;;4.50;;
76727;SDS011;65652;53.132;18.026;2023-10-31T06:57:33;9.20;;;4.70;;
76727;SDS011;65652;53.132;18.026;2023-10-31T07:00:00;9.10;;;4.10;;
76727;SDS011;65652;53.132;18.026;2023-10-31T07:02:27;10.60;;;4.30;;
76727;SDS011;65652;53.132;18.026;2023-10-31T07:04:54;8.80;;;4.10;;
76727;SDS011;65652;53.132;18.026;2023-10-31T07:07:20;12.20;;;4.50;;
76727;SDS011;65652;53.132;18.026;2023-10-31T07:09:47;10.80;;;4.20;;
76727;SDS011;65652;53.132;18.026;2023-10-31T07:12:14;9.40;;;4.40;;
76727;SDS011;65652;53.132;18.026;2023-10-31T07:14:41;11.50;;;4.20;;
76727;SDS011;65652;53.132;18.026;2023-10-31T07:17:08;8.60;;;4.00;;
76727;SDS011;65652;53.132;18.026;2023-10-31T07:19:35;10.60;;;4.10;;
76727;SDS011;65652;53.132;18.026;2023-10-31T07:22:02;10.40;;;4.40;;
76727;SDS011;65652;53.132;18.026;2023-10-31T07:24:29;10.20;;;4.00;;
76727;SDS011;65652;53.132;18.026;2023-10-31T07:26:56;8.00;;;3.80;;
76727;SDS011;65652;53.132;18.026;2023-10-31T07:29:23;11.40;;;4.20;;
76727;SDS011;65652;53.132;18.026;2023-10-31T07:31:49;10.50;;;4.90;;
76727;SDS011;65652;53.132;18.026;2023-10-31T07:34:16;10.50;;;4.30;;
76727;SDS011;65652;53.132;18.026;2023-10-31T07:36:43;11.60;;;4.70;;
76727;SDS011;65652;53.132;18.026;2023-10-31T07:39:10;9.10;;;4.50;;
76727;SDS011;65652;53.132;18.026;2023-10-31T07:41:39;10.20;;;4.40;;
76727;SDS011;65652;53.132;18.026;2023-10-31T07:44:06;11.70;;;4.70;;
76727;SDS011;65652;53.132;18.026;2023-10-31T07:46:33;12.60;;;3.90;;
76727;SDS011;65652;53.132;18.026;2023-10-31T07:49:00;10.00;;;4.30;;
76727;SDS011;65652;53.132;18.026;2023-10-31T07:51:27;9.00;;;4.20;;
76727;SDS011;65652;53.132;18.026;2023-10-31T07:53:53;10.10;;;4.30;;
76727;SDS011;65652;53.132;18.026;2023-10-31T07:56:20;12.30;;;4.50;;
76727;SDS011;65652;53.132;18.026;2023-10-31T07:58:49;10.40;;;4.70;;
76727;SDS011;65652;53.132;18.026;2023-10-31T08:01:17;9.60;;;4.00;;
76727;SDS011;65652;53.132;18.026;2023-10-31T08:03:45;10.50;;;4.50;;
76727;SDS011;65652;53.132;18.026;2023-10-31T08:06:13;10.60;;;4.50;;
76727;SDS011;65652;53.132;18.026;2023-10-31T08:08:40;9.20;;;4.40;;
76727;SDS011;65652;53.132;18.026;2023-10-31T08:11:10;10.70;;;4.40;;
76727;SDS011;65652;53.132;18.026;2023-10-31T08:13:37;12.70;;;5.40;;
76727;SDS011;65652;53.132;18.026;2023-10-31T08:16:05;12.50;;;5.10;;
76727;SDS011;65652;53.132;18.026;2023-10-31T08:18:33;9.10;;;4.30;;
76727;SDS011;65652;53.132;18.026;2023-10-31T08:21:00;11.00;;;4.50;;
76727;SDS011;65652;53.132;18.026;2023-10-31T08:23:28;13.30;;;5.10;;
76727;SDS011;65652;53.132;18.026;2023-10-31T08:25:55;9.90;;;3.80;;
76727;SDS011;65652;53.132;18.026;2023-10-31T08:28:22;10.00;;;4.50;;
76727;SDS011;65652;53.132;18.026;2023-10-31T08:30:49;10.40;;;4.20;;
76727;SDS011;65652;53.132;18.026;2023-10-31T08:33:16;9.70;;;4.00;;
76727;SDS011;65652;53.132;18.026;2023-10-31T08:35:43;11.20;;;4.50;;
76727;SDS011;65652;53.132;18.026;2023-10-31T08:38:10;10.70;;;4.60;;
76727;SDS011;65652;53.132;18.026;2023-10-31T08:40:37;8.20;;;3.80;;
76727;SDS011;65652;53.132;18.026;2023-10-31T08:43:04;11.10;;;5.00;;
76727;SDS011;65652;53.132;18.026;2023-10-31T08:45:33;11.00;;;4.60;;
76727;SDS011;65652;53.132;18.026;2023-10-31T08:48:00;11.20;;;4.60;;
76727;SDS011;65652;53.132;18.026;2023-10-31T08:50:27;11.40;;;4.50;;
76727;SDS011;65652;53.132;18.026;2023-10-31T08:52:54;9.90;;;5.00;;
76727;SDS011;65652;53.132;18.026;2023-10-31T08:55:21;8.80;;;4.90;;
76727;SDS011;65652;53.132;18.026;2023-10-31T08:57:47;9.50;;;4.60;;
76727;SDS011;65652;53.132;18.026;2023-10-31T09:00:14;9.00;;;4.10;;
76727;SDS011;65652;53.132;18.026;2023-10-31T09:02:42;9.60;;;4.90;;
76727;SDS011;65652;53.132;18.026;2023-10-31T09:05:09;8.20;;;5.00;;
76727;SDS011;65652;53.132;18.026;2023-10-31T09:07:36;10.00;;;4.80;;
76727;SDS011;65652;53.132;18.026;2023-10-31T09:10:03;9.70;;;5.00;;
76727;SDS011;65652;53.132;18.026;2023-10-31T09:12:31;10.40;;;4.80;;
76727;SDS011;65652;53.132;18.026;2023-10-31T09:14:58;9.90;;;4.80;;
76727;SDS011;65652;53.132;18.026;2023-10-31T09:17:27;8.30;;;4.00;;
76727;SDS011;65652;53.132;18.026;2023-10-31T09:19:54;9.20;;;4.20;;
76727;SDS011;65652;53.132;18.026;2023-10-31T09:22:21;9.00;;;4.50;;
76727;SDS011;65652;53.132;18.026;2023-10-31T09:24:48;8.80;;;4.40;;
76727;SDS011;65652;53.132;18.026;2023-10-31T09:27:15;8.10;;;4.70;;
76727;SDS011;65652;53.132;18.026;2023-10-31T09:29:42;7.20;;;3.90;;
76727;SDS011;65652;53.132;18.026;2023-10-31T09:32:08;7.50;;;4.10;;
76727;SDS011;65652;53.132;18.026;2023-10-31T09:34:35;7.40;;;4.50;;
76727;SDS011;65652;53.132;18.026;2023-10-31T09:37:02;8.30;;;4.20;;
76727;SDS011;65652;53.132;18.026;2023-10-31T09:39:29;8.40;;;4.30;;
76727;SDS011;65652;53.132;18.026;2023-10-31T09:41:56;7.60;;;4.10;;
76727;SDS011;65652;53.132;18.026;2023-10-31T09:44:23;7.00;;;3.80;;
76727;SDS011;65652;53.132;18.026;2023-10-31T09:46:51;6.60;;;3.40;;
76727;SDS011;65652;53.132;18.026;2023-10-31T09:49:19;8.40;;;4.00;;
76727;SDS011;65652;53.132;18.026;2023-10-31T09:51:46;9.20;;;4.00;;
76727;SDS011;65652;53.132;18.026;2023-10-31T09:54:15;6.10;;;3.00;;
76727;SDS011;65652;53.132;18.026;2023-10-31T09:56:43;6.20;;;3.40;;
76727;SDS011;65652;53.132;18.026;2023-10-31T09:59:10;8.90;;;4.10;;
76727;SDS011;65652;53.132;18.026;2023-10-31T10:01:37;7.80;;;4.20;;
76727;SDS011;65652;53.132;18.026;2023-10-31T10:04:04;7.20;;;3.80;;
76727;SDS011;65652;53.132;18.026;2023-10-31T10:06:32;6.20;;;3.00;;
76727;SDS011;65652;53.132;18.026;2023-10-31T10:08:59;6.40;;;3.50;;
76727;SDS011;65652;53.132;18.026;2023-10-31T10:11:25;7.20;;;3.70;;
76727;SDS011;65652;53.132;18.026;2023-10-31T10:13:52;7.00;;;3.90;;
76727;SDS011;65652;53.132;18.026;2023-10-31T10:16:31;6.80;;;3.70;;
76727;SDS011;65652;53.132;18.026;2023-10-31T10:19:18;6.80;;;3.70;;
76727;SDS011;65652;53.132;18.026;2023-10-31T10:24:17;6.80;;;3.30;;
76727;SDS011;65652;53.132;18.026;2023-10-31T10:26:44;8.30;;;3.70;;
76727;SDS011;65652;53.132;18.026;2023-10-31T10:29:12;7.50;;;3.80;;
76727;SDS011;65652;53.132;18.026;2023-10-31T10:31:39;7.90;;;4.80;;
76727;SDS011;65652;53.132;18.026;2023-10-31T10:36:34;7.40;;;4.00;;
76727;SDS011;65652;53.132;18.026;2023-10-31T10:39:02;7.70;;;4.60;;
76727;SDS011;65652;53.132;18.026;2023-10-31T10:41:30;8.10;;;4.70;;
76727;SDS011;65652;53.132;18.026;2023-10-31T10:44:05;8.80;;;4.90;;
76727;SDS011;65652;53.132;18.026;2023-10-31T10:46:34;8.70;;;5.10;;
76727;SDS011;65652;53.132;18.026;2023-10-31T10:49:07;9.40;;;5.50;;
76727;SDS011;65652;53.132;18.026;2023-10-31T10:51:53;10.20;;;4.90;;
76727;SDS011;65652;53.132;18.026;2023-10-31T10:54:35;8.70;;;5.00;;
76727;SDS011;65652;53.132;18.026;2023-10-31T11:00:03;10.80;;;5.70;;
76727;SDS011;65652;53.132;18.026;2023-10-31T11:02:32;10.30;;;6.00;;
76727;SDS011;65652;53.132;18.026;2023-10-31T11:05:00;9.50;;;4.90;;
76727;SDS011;65652;53.132;18.026;2023-10-31T11:09:55;11.50;;;6.70;;
76727;SDS011;65652;53.132;18.026;2023-10-31T11:12:25;10.10;;;5.40;;
76727;SDS011;65652;53.132;18.026;2023-10-31T11:14:52;12.30;;;6.60;;
76727;SDS011;65652;53.132;18.026;2023-10-31T11:17:33;11.30;;;6.30;;
76727;SDS011;65652;53.132;18.026;2023-10-31T11:20:02;12.70;;;6.10;;
76727;SDS011;65652;53.132;18.026;2023-10-31T11:22:48;10.60;;;5.80;;
76727;SDS011;65652;53.132;18.026;2023-10-31T11:25:23;10.40;;;5.50;;
76727;SDS011;65652;53.132;18.026;2023-10-31T11:27:50;12.60;;;6.10;;
76727;SDS011;65652;53.132;18.026;2023-10-31T11:30:30;9.40;;;4.70;;
76727;SDS011;65652;53.132;18.026;2023-10-31T11:33:00;9.90;;;6.00;;
76727;SDS011;65652;53.132;18.026;2023-10-31T11:35:29;10.60;;;6.00;;
76727;SDS011;65652;53.132;18.026;2023-10-31T11:38:04;9.00;;;5.30;;
76727;SDS011;65652;53.132;18.026;2023-10-31T11:40:35;8.50;;;4.50;;
76727;SDS011;65652;53.132;18.026;2023-10-31T11:43:04;7.70;;;4.30;;
76727;SDS011;65652;53.132;18.026;2023-10-31T11:45:36;9.70;;;4.80;;
76727;SDS011;65652;53.132;18.026;2023-10-31T11:48:04;7.20;;;3.60;;
76727;SDS011;65652;53.132;18.026;2023-10-31T11:50:31;9.30;;;4.60;;
76727;SDS011;65652;53.132;18.026;2023-10-31T11:53:00;7.20;;;3.80;;
76727;SDS011;65652;53.132;18.026;2023-10-31T11:55:31;8.50;;;4.20;;
76727;SDS011;65652;53.132;18.026;2023-10-31T12:00:45;6.40;;;3.00;;
76727;SDS011;65652;53.132;18.026;2023-10-31T12:03:18;7.20;;;3.00;;
76727;SDS011;65652;53.132;18.026;2023-10-31T12:08:28;5.60;;;2.70;;
76727;SDS011;65652;53.132;18.026;2023-10-31T12:11:18;5.70;;;2.70;;
76727;SDS011;65652;53.132;18.026;2023-10-31T12:13:52;6.00;;;2.60;;
76727;SDS011;65652;53.132;18.026;2023-10-31T12:16:22;5.50;;;2.40;;
76727;SDS011;65652;53.132;18.026;2023-10-31T12:18:54;5.30;;;2.30;;
76727;SDS011;65652;53.132;18.026;2023-10-31T12:24:05;5.50;;;2.30;;
76727;SDS011;65652;53.132;18.026;2023-10-31T12:26:33;4.30;;;1.70;;
76727;SDS011;65652;53.132;18.026;2023-10-31T12:29:08;5.60;;;2.40;;
76727;SDS011;65652;53.132;18.026;2023-10-31T12:34:22;5.00;;;2.30;;
76727;SDS011;65652;53.132;18.026;2023-10-31T12:36:50;4.20;;;1.80;;
76727;SDS011;65652;53.132;18.026;2023-10-31T12:39:21;4.50;;;1.90;;
76727;SDS011;65652;53.132;18.026;2023-10-31T12:41:50;5.60;;;1.80;;
76727;SDS011;65652;53.132;18.026;2023-10-31T12:44:20;4.90;;;2.00;;
76727;SDS011;65652;53.132;18.026;2023-10-31T12:46:50;3.90;;;1.60;;
76727;SDS011;65652;53.132;18.026;2023-10-31T12:49:19;5.50;;;2.10;;
76727;SDS011;65652;53.132;18.026;2023-10-31T12:52:02;4.40;;;1.80;;
76727;SDS011;65652;53.132;18.026;2023-10-31T12:54:31;4.50;;;2.00;;
76727;SDS011;65652;53.132;18.026;2023-10-31T12:57:01;5.80;;;1.70;;
76727;SDS011;65652;53.132;18.026;2023-10-31T12:59:31;4.80;;;2.00;;
76727;SDS011;65652;53.132;18.026;2023-10-31T13:01:58;4.20;;;1.50;;
76727;SDS011;65652;53.132;18.026;2023-10-31T13:04:32;4.40;;;1.70;;
76727;SDS011;65652;53.132;18.026;2023-10-31T13:09:31;4.00;;;1.20;;
76727;SDS011;65652;53.132;18.026;2023-10-31T13:12:03;4.20;;;1.10;;
76727;SDS011;65652;53.132;18.026;2023-10-31T13:14:30;3.70;;;0.90;;
76727;SDS011;65652;53.132;18.026;2023-10-31T13:16:58;3.50;;;1.10;;
76727;SDS011;65652;53.132;18.026;2023-10-31T13:19:25;3.20;;;0.90;;
76727;SDS011;65652;53.132;18.026;2023-10-31T13:21:52;4.00;;;1.00;;
76727;SDS011;65652;53.132;18.026;2023-10-31T13:24:19;4.00;;;1.20;;
76727;SDS011;65652;53.132;18.026;2023-10-31T13:26:46;2.70;;;0.80;;
76727;SDS011;65652;53.132;18.026;2023-10-31T13:29:18;5.00;;;1.60;;
76727;SDS011;65652;53.132;18.026;2023-10-31T13:31:45;3.60;;;1.30;;
76727;SDS011;65652;53.132;18.026;2023-10-31T13:34:12;4.60;;;1.90;;
76727;SDS011;65652;53.132;18.026;2023-10-31T13:36:39;4.40;;;1.70;;
76727;SDS011;65652;53.132;18.026;2023-10-31T13:39:05;4.00;;;1.50;;
76727;SDS011;65652;53.132;18.026;2023-10-31T13:41:32;4.20;;;1.90;;
76727;SDS011;65652;53.132;18.026;2023-10-31T13:43:59;4.20;;;2.00;;
76727;SDS011;65652;53.132;18.026;2023-10-31T13:46:26;4.50;;;1.90;;
76727;SDS011;65652;53.132;18.026;2023-10-31T13:48:53;3.50;;;1.40;;
76727;SDS011;65652;53.132;18.026;2023-10-31T13:51:20;4.30;;;1.50;;
76727;SDS011;65652;53.132;18.026;2023-10-31T13:53:47;4.20;;;1.60;;
76727;SDS011;65652;53.132;18.026;2023-10-31T13:56:13;4.30;;;1.40;;
76727;SDS011;65652;53.132;18.026;2023-10-31T13:58:40;3.90;;;1.50;;
76727;SDS011;65652;53.132;18.026;2023-10-31T14:01:07;4.50;;;1.50;;
76727;SDS011;65652;53.132;18.026;2023-10-31T14:03:34;3.50;;;1.50;;
76727;SDS011;65652;53.132;18.026;2023-10-31T14:06:01;4.10;;;1.50;;
76727;SDS011;65652;53.132;18.026;2023-10-31T14:08:28;4.10;;;1.40;;
76727;SDS011;65652;53.132;18.026;2023-10-31T14:10:54;4.90;;;1.50;;
76727;SDS011;65652;53.132;18.026;2023-10-31T14:13:23;4.90;;;1.40;;
76727;SDS011;65652;53.132;18.026;2023-10-31T14:15:50;4.20;;;1.60;;
76727;SDS011;65652;53.132;18.026;2023-10-31T14:18:17;4.20;;;1.50;;
76727;SDS011;65652;53.132;18.026;2023-10-31T14:20:44;4.10;;;1.60;;
76727;SDS011;65652;53.132;18.026;2023-10-31T14:23:10;3.60;;;1.50;;
76727;SDS011;65652;53.132;18.026;2023-10-31T14:25:37;3.80;;;1.60;;
76727;SDS011;65652;53.132;18.026;2023-10-31T14:28:05;3.90;;;1.30;;
76727;SDS011;65652;53.132;18.026;2023-10-31T14:30:32;3.90;;;1.40;;
76727;SDS011;65652;53.132;18.026;2023-10-31T14:33:00;5.90;;;1.50;;
76727;SDS011;65652;53.132;18.026;2023-10-31T14:35:27;3.60;;;1.20;;
76727;SDS011;65652;53.132;18.026;2023-10-31T14:37:54;4.30;;;1.60;;
76727;SDS011;65652;53.132;18.026;2023-10-31T14:40:21;4.50;;;1.50;;
76727;SDS011;65652;53.132;18.026;2023-10-31T14:42:55;7.70;;;3.00;;
76727;SDS011;65652;53.132;18.026;2023-10-31T14:45:22;5.30;;;2.00;;
76727;SDS011;65652;53.132;18.026;2023-10-31T14:47:48;4.20;;;1.20;;
76727;SDS011;65652;53.132;18.026;2023-10-31T14:50:15;4.30;;;1.50;;
76727;SDS011;65652;53.132;18.026;2023-10-31T14:52:42;6.10;;;2.80;;
76727;SDS011;65652;53.132;18.026;2023-10-31T14:55:09;8.50;;;1.90;;
76727;SDS011;65652;53.132;18.026;2023-10-31T14:57:36;3.30;;;1.20;;
76727;SDS011;65652;53.132;18.026;2023-10-31T15:00:03;3.50;;;1.10;;